createdAt,value
2023-09-26T00:00:39.100Z,1.57
2023-09-26T00:03:08.357Z,1.93
2023-09-26T00:05:36.793Z,1.80
2023-09-26T00:08:05.383Z,2.30
2023-09-26T00:10:33.930Z,2.20
2023-09-26T00:13:02.286Z,1.90
2023-09-26T00:15:31.907Z,2.83
2023-09-26T00:18:00.366Z,2.87
2023-09-26T00:20:29.953Z,2.33
2023-09-26T00:22:58.456Z,2.13
2023-09-26T00:25:27.054Z,2.40
2023-09-26T00:27:55.664Z,3.67
2023-09-26T00:30:25.483Z,1.67
2023-09-26T00:32:55.017Z,2.10
2023-09-26T00:35:23.429Z,2.50
2023-09-26T00:37:53.086Z,2.37
2023-09-26T00:40:23.456Z,3.00
2023-09-26T00:42:52.246Z,2.80
2023-09-26T00:45:20.878Z,3.77
2023-09-26T00:47:50.420Z,1.70
2023-09-26T00:50:23.225Z,2.97
2023-09-26T00:52:52.583Z,2.97
2023-09-26T00:55:23.885Z,2.20
2023-09-26T00:57:52.388Z,2.60
2023-09-26T01:00:21.427Z,2.30
2023-09-26T01:02:50.162Z,2.53
2023-09-26T01:05:19.807Z,1.60
2023-09-26T01:07:48.817Z,2.30
2023-09-26T01:10:17.354Z,1.97
2023-09-26T01:12:45.929Z,4.80
2023-09-26T01:15:14.331Z,1.93
2023-09-26T01:17:42.744Z,1.73
2023-09-26T01:20:14.465Z,2.53
2023-09-26T01:22:47.621Z,1.80
2023-09-26T01:25:18.914Z,1.53
2023-09-26T01:27:47.925Z,1.87
2023-09-26T01:30:17.938Z,2.37
2023-09-26T01:32:48.419Z,2.00
2023-09-26T01:35:16.458Z,1.80
2023-09-26T01:37:45.373Z,2.00
2023-09-26T01:40:17.195Z,2.20
2023-09-26T01:42:46.841Z,4.03
2023-09-26T01:45:14.999Z,2.30
2023-09-26T01:47:47.420Z,2.30
2023-09-26T01:50:16.117Z,2.70
2023-09-26T01:52:44.635Z,3.70
2023-09-26T01:55:15.599Z,1.60
2023-09-26T01:57:44.085Z,4.93
2023-09-26T02:00:15.529Z,2.23
2023-09-26T02:02:45.340Z,1.13
2023-09-26T02:05:14.991Z,2.03
2023-09-26T02:07:43.465Z,1.60
2023-09-26T02:10:12.455Z,1.57
2023-09-26T02:12:44.567Z,1.57
2023-09-26T02:15:14.363Z,1.57
2023-09-26T02:17:43.434Z,2.10
2023-09-26T02:20:15.649Z,2.27
2023-09-26T02:22:44.976Z,2.50
2023-09-26T02:25:14.331Z,4.07
2023-09-26T02:27:44.169Z,2.70
2023-09-26T02:30:16.499Z,5.17
2023-09-26T02:32:44.875Z,3.77
2023-09-26T02:35:14.543Z,2.93
2023-09-26T02:37:42.920Z,4.83
2023-09-26T02:40:12.114Z,7.20
2023-09-26T02:42:41.786Z,4.27
2023-09-26T02:45:10.781Z,5.83
2023-09-26T02:47:40.501Z,4.40
2023-09-26T02:50:09.752Z,5.40
2023-09-26T02:52:39.400Z,6.53
2023-09-26T02:55:08.636Z,4.00
2023-09-26T02:57:37.540Z,4.37
2023-09-26T03:00:15.312Z,6.43
2023-09-26T03:02:45.740Z,5.37
2023-09-26T03:05:14.324Z,4.77
2023-09-26T03:07:42.900Z,5.33
2023-09-26T03:10:12.097Z,4.57
2023-09-26T03:12:40.617Z,6.43
2023-09-26T03:15:09.863Z,3.80
2023-09-26T03:17:38.273Z,4.17
2023-09-26T03:20:10.382Z,4.90
2023-09-26T03:22:38.823Z,5.30
2023-09-26T03:25:07.877Z,4.47
2023-09-26T03:27:36.306Z,3.37
2023-09-26T03:30:04.931Z,4.90
2023-09-26T03:32:33.300Z,3.53
2023-09-26T03:35:01.680Z,3.40
2023-09-26T03:37:31.117Z,6.90
2023-09-26T03:39:59.615Z,3.97
2023-09-26T03:42:28.044Z,4.90
2023-09-26T03:44:56.140Z,3.93
2023-09-26T03:47:25.775Z,3.73
2023-09-26T03:49:55.358Z,4.97
2023-09-26T03:52:24.364Z,5.87
2023-09-26T03:54:53.882Z,3.70
2023-09-26T03:57:22.307Z,3.37
2023-09-26T03:59:51.675Z,4.30
2023-09-26T04:02:20.016Z,3.97
2023-09-26T04:04:48.728Z,4.00
2023-09-26T04:07:17.171Z,4.47
2023-09-26T04:09:45.584Z,6.47
2023-09-26T04:12:14.997Z,4.40
2023-09-26T04:14:43.333Z,4.47
2023-09-26T04:17:12.106Z,3.50
2023-09-26T04:19:40.428Z,4.03
2023-09-26T04:22:08.628Z,4.83
2023-09-26T04:24:37.073Z,4.00
2023-09-26T04:27:05.662Z,5.30
2023-09-26T04:29:36.898Z,7.57
2023-09-26T04:32:05.371Z,12.27
2023-09-26T04:34:33.569Z,5.43
2023-09-26T04:37:02.060Z,4.30
2023-09-26T04:39:30.694Z,4.80
2023-09-26T04:41:59.188Z,4.60
2023-09-26T04:44:27.565Z,3.70
2023-09-26T04:46:57.260Z,3.70
2023-09-26T04:49:25.747Z,8.60
2023-09-26T04:51:54.149Z,4.37
2023-09-26T04:54:22.564Z,3.97
2023-09-26T04:56:50.886Z,4.47
2023-09-26T04:59:19.226Z,4.40
2023-09-26T05:01:47.613Z,3.23
2023-09-26T05:04:17.213Z,5.30
2023-09-26T05:06:45.651Z,3.80
2023-09-26T05:09:13.994Z,3.77
2023-09-26T05:11:42.084Z,5.37
2023-09-26T05:14:10.461Z,8.90
2023-09-26T05:16:38.906Z,4.87
2023-09-26T05:19:07.484Z,4.00
2023-09-26T05:21:36.893Z,4.97
2023-09-26T05:24:06.068Z,6.27
2023-09-26T05:26:34.442Z,7.23
2023-09-26T05:29:02.457Z,5.77
2023-09-26T05:31:32.872Z,6.67
2023-09-26T05:34:01.590Z,4.37
2023-09-26T05:36:29.779Z,4.83
2023-09-26T05:38:59.171Z,5.30
2023-09-26T05:41:27.271Z,3.07
2023-09-26T05:43:55.616Z,5.90
2023-09-26T05:46:23.844Z,5.67
2023-09-26T05:48:52.403Z,4.60
2023-09-26T05:51:20.820Z,4.80
2023-09-26T05:53:49.161Z,6.50
2023-09-26T05:56:18.662Z,5.57
2023-09-26T05:58:48.100Z,3.87
2023-09-26T06:01:16.598Z,4.10
2023-09-26T06:03:45.037Z,4.53
2023-09-26T06:06:13.133Z,4.10
2023-09-26T06:08:41.185Z,11.50
2023-09-26T06:11:10.504Z,5.40
2023-09-26T06:13:40.893Z,5.87
2023-09-26T06:16:09.385Z,5.20
2023-09-26T06:18:37.827Z,5.37
2023-09-26T06:21:06.700Z,7.73
2023-09-26T06:23:35.263Z,6.67
2023-09-26T06:26:03.795Z,7.03
2023-09-26T06:28:32.411Z,8.43
2023-09-26T06:31:07.756Z,7.07
2023-09-26T06:33:36.909Z,9.03
2023-09-26T06:36:13.777Z,7.97
2023-09-26T06:38:42.640Z,7.73
2023-09-26T06:41:11.130Z,8.60
2023-09-26T06:43:39.141Z,9.10
2023-09-26T06:46:09.921Z,6.53
2023-09-26T06:48:39.506Z,7.63
2023-09-26T06:51:09.509Z,9.63
2023-09-26T06:53:38.414Z,7.67
2023-09-26T06:56:08.429Z,8.07
2023-09-26T06:58:37.764Z,6.80
2023-09-26T07:01:06.270Z,9.17
2023-09-26T07:03:35.671Z,7.33
2023-09-26T07:06:10.290Z,7.43
2023-09-26T07:08:38.918Z,5.53
2023-09-26T07:11:07.771Z,6.40
2023-09-26T07:13:48.091Z,5.93
2023-09-26T07:16:17.542Z,7.80
2023-09-26T07:18:47.409Z,5.70
2023-09-26T07:21:15.897Z,6.30
2023-09-26T07:23:44.254Z,7.17
2023-09-26T07:26:15.566Z,5.80
2023-09-26T07:28:45.587Z,6.67
2023-09-26T07:31:14.877Z,5.27
2023-09-26T07:33:44.087Z,7.93
2023-09-26T07:36:14.111Z,6.77
2023-09-26T07:38:42.539Z,9.77
2023-09-26T07:41:11.069Z,10.23
2023-09-26T07:43:39.519Z,7.80
2023-09-26T07:46:08.309Z,5.67
2023-09-26T07:48:37.535Z,10.70
2023-09-26T07:51:07.055Z,6.83
2023-09-26T07:53:37.485Z,6.27
2023-09-26T07:56:06.008Z,6.90
2023-09-26T07:58:34.440Z,7.77
2023-09-26T08:01:08.539Z,5.40
2023-09-26T08:03:38.636Z,6.93
2023-09-26T08:06:08.697Z,6.30
2023-09-26T08:08:38.458Z,6.20
2023-09-26T08:11:08.582Z,7.17
2023-09-26T08:13:38.220Z,7.83
2023-09-26T08:16:06.821Z,6.80
2023-09-26T08:18:35.201Z,5.87
2023-09-26T08:21:03.230Z,7.23
2023-09-26T08:23:31.523Z,6.03
2023-09-26T08:26:03.086Z,7.73
2023-09-26T08:28:33.140Z,4.40
2023-09-26T08:31:06.725Z,6.03
2023-09-26T08:33:35.019Z,8.20
2023-09-26T08:36:03.213Z,4.50
2023-09-26T08:38:31.620Z,10.50
2023-09-26T08:41:02.120Z,5.97
2023-09-26T08:43:30.510Z,5.05
2023-09-26T08:45:59.210Z,4.55
2023-09-26T08:48:27.661Z,7.18
2023-09-26T08:50:56.010Z,5.43
2023-09-26T08:53:24.361Z,5.32
2023-09-26T08:55:52.521Z,7.57
2023-09-26T08:58:23.076Z,5.93
2023-09-26T09:00:51.837Z,8.15
2023-09-26T09:03:20.297Z,5.15
2023-09-26T09:05:48.488Z,6.18
2023-09-26T09:08:21.262Z,3.90
2023-09-26T09:10:50.927Z,4.88
2023-09-26T09:13:30.754Z,5.35
2023-09-26T09:16:13.339Z,3.67
2023-09-26T09:18:44.176Z,4.57
2023-09-26T09:21:27.078Z,4.88
2023-09-26T09:23:57.168Z,2.47
2023-09-26T09:26:26.225Z,2.35
2023-09-26T09:28:56.887Z,2.17
2023-09-26T09:31:25.206Z,2.42
2023-09-26T09:33:56.799Z,4.82
2023-09-26T09:36:25.462Z,4.55
2023-09-26T09:38:53.749Z,5.80
2023-09-26T09:41:22.123Z,4.47
2023-09-26T09:43:50.521Z,3.75
2023-09-26T09:46:21.498Z,6.25
2023-09-26T09:48:53.785Z,2.13
2023-09-26T09:51:22.644Z,2.00
2023-09-26T09:53:56.115Z,2.75
2023-09-26T09:56:25.628Z,1.67
2023-09-26T09:58:58.456Z,4.50
2023-09-26T10:01:29.004Z,1.60
2023-09-26T10:03:57.263Z,1.85
2023-09-26T10:06:25.476Z,2.83
2023-09-26T10:08:55.074Z,2.03
2023-09-26T10:11:23.735Z,3.72
2023-09-26T10:13:52.524Z,3.08
2023-09-26T10:16:23.251Z,1.92
2023-09-26T10:18:53.387Z,3.30
2023-09-26T10:21:26.451Z,1.58
2023-09-26T10:24:30.264Z,1.73
2023-09-26T10:27:17.316Z,5.13
2023-09-26T10:29:55.801Z,2.40
2023-09-26T10:32:31.821Z,1.83
2023-09-26T10:35:03.118Z,1.27
2023-09-26T10:37:32.106Z,1.25
2023-09-26T10:40:00.165Z,3.70
2023-09-26T10:44:59.171Z,2.22
2023-09-26T10:47:27.627Z,1.77
2023-09-26T10:49:58.126Z,2.28
2023-09-26T10:52:31.104Z,1.42
2023-09-26T10:55:00.083Z,3.30
2023-09-26T10:57:28.163Z,2.83
2023-09-26T10:59:56.473Z,1.23
2023-09-26T11:02:25.034Z,0.98
2023-09-26T11:04:53.468Z,1.70
2023-09-26T11:07:22.191Z,1.10
2023-09-26T11:09:51.748Z,2.63
2023-09-26T11:12:19.891Z,1.30
2023-09-26T11:14:48.061Z,1.27
2023-09-26T11:17:16.155Z,1.70
2023-09-26T11:19:44.241Z,1.02
2023-09-26T11:22:12.678Z,1.05
2023-09-26T11:24:40.736Z,1.63
2023-09-26T11:27:10.526Z,2.05
2023-09-26T11:29:39.141Z,1.83
2023-09-26T11:32:07.928Z,1.33
2023-09-26T11:34:37.213Z,3.70
2023-09-26T11:37:07.410Z,1.50
2023-09-26T11:39:35.501Z,1.73
2023-09-26T11:42:05.305Z,2.00
2023-09-26T11:44:34.878Z,1.58
2023-09-26T11:47:04.325Z,1.42
2023-09-26T11:49:32.634Z,1.45
2023-09-26T11:52:01.801Z,2.13
2023-09-26T11:54:30.088Z,1.65
2023-09-26T11:56:58.825Z,2.70
2023-09-26T11:59:26.921Z,1.40
2023-09-26T12:02:00.112Z,1.52
2023-09-26T12:04:29.695Z,1.33
2023-09-26T12:06:57.823Z,1.35
2023-09-26T12:09:25.844Z,1.23
2023-09-26T12:11:54.710Z,1.25
2023-09-26T12:14:23.220Z,4.13
2023-09-26T12:16:53.707Z,0.73
2023-09-26T12:19:24.795Z,3.10
2023-09-26T12:21:53.117Z,1.05
2023-09-26T12:24:21.436Z,1.00
2023-09-26T12:26:49.557Z,1.15
2023-09-26T12:29:18.078Z,1.05
2023-09-26T12:31:46.595Z,2.13
2023-09-26T12:34:15.978Z,1.02
2023-09-26T12:36:45.499Z,1.00
2023-09-26T12:39:13.753Z,1.52
2023-09-26T12:41:41.869Z,1.00
2023-09-26T12:44:11.563Z,0.82
2023-09-26T12:46:40.592Z,1.13
2023-09-26T12:49:09.733Z,0.88
2023-09-26T12:51:38.005Z,1.65
2023-09-26T12:54:07.938Z,2.10
2023-09-26T12:56:36.023Z,0.73
2023-09-26T12:59:04.363Z,1.10
2023-09-26T13:01:32.872Z,0.80
2023-09-26T13:04:01.308Z,5.47
2023-09-26T13:06:29.632Z,1.15
2023-09-26T13:08:57.651Z,1.25
2023-09-26T13:11:27.099Z,0.95
2023-09-26T13:13:55.227Z,1.52
2023-09-26T13:16:23.500Z,2.10
2023-09-26T13:18:52.142Z,1.75
2023-09-26T13:21:20.207Z,0.98
2023-09-26T13:23:48.293Z,1.67
2023-09-26T13:26:16.318Z,0.98
2023-09-26T13:28:46.823Z,1.63
2023-09-26T13:31:15.026Z,0.88
2023-09-26T13:33:43.113Z,0.70
2023-09-26T13:36:11.166Z,0.80
2023-09-26T13:38:39.240Z,0.80
2023-09-26T13:41:07.552Z,0.73
2023-09-26T13:43:36.241Z,0.95
2023-09-26T13:46:05.836Z,2.42
2023-09-26T13:48:33.845Z,2.22
2023-09-26T13:51:02.004Z,0.90
2023-09-26T13:53:31.246Z,0.88
2023-09-26T13:55:59.278Z,1.23
2023-09-26T13:58:27.435Z,1.15
2023-09-26T14:00:55.468Z,3.75
2023-09-26T14:03:26.012Z,1.50
2023-09-26T14:05:54.233Z,4.45
2023-09-26T14:08:22.505Z,1.42
2023-09-26T14:10:50.552Z,1.13
2023-09-26T14:13:18.617Z,0.75
2023-09-26T14:15:46.645Z,0.88
2023-09-26T14:18:14.733Z,1.20
2023-09-26T14:20:44.151Z,0.88
2023-09-26T14:23:12.189Z,1.23
2023-09-26T14:25:40.265Z,2.05
2023-09-26T14:28:08.424Z,2.13
2023-09-26T14:30:36.582Z,1.15
2023-09-26T14:33:04.851Z,1.98
2023-09-26T14:35:33.059Z,0.80
2023-09-26T14:38:02.673Z,3.13
2023-09-26T14:40:30.975Z,2.00
2023-09-26T14:42:59.217Z,2.85
2023-09-26T14:45:31.121Z,1.83
2023-09-26T14:48:05.619Z,1.45
2023-09-26T14:50:34.000Z,0.90
2023-09-26T14:53:03.624Z,1.23
2023-09-26T14:55:31.737Z,1.73
2023-09-26T14:57:59.718Z,6.43
2023-09-26T15:00:27.777Z,2.17
2023-09-26T15:02:56.020Z,1.75
2023-09-26T15:05:24.248Z,1.98
2023-09-26T15:07:52.377Z,1.00
2023-09-26T15:10:21.875Z,3.80
2023-09-26T15:12:49.899Z,2.25
2023-09-26T15:15:18.091Z,1.15
2023-09-26T15:17:46.172Z,3.63
2023-09-26T15:20:14.364Z,1.10
2023-09-26T15:22:42.413Z,1.95
2023-09-26T15:25:11.035Z,1.60
2023-09-26T15:27:40.682Z,0.80
2023-09-26T15:30:10.188Z,3.33
2023-09-26T15:32:38.391Z,2.72
2023-09-26T15:35:07.548Z,1.38
2023-09-26T15:37:35.689Z,2.25
2023-09-26T15:40:04.895Z,2.38
2023-09-26T15:42:35.103Z,2.38
2023-09-26T15:45:05.788Z,1.33
2023-09-26T15:47:33.897Z,1.15
2023-09-26T15:50:02.000Z,1.45
2023-09-26T15:52:30.070Z,1.73
2023-09-26T15:54:58.667Z,1.23
2023-09-26T15:57:26.726Z,0.80
2023-09-26T15:59:54.801Z,1.67
2023-09-26T16:02:24.340Z,3.70
2023-09-26T16:04:52.568Z,1.52
2023-09-26T16:07:20.760Z,1.20
2023-09-26T16:09:48.731Z,3.75
2023-09-26T16:12:16.806Z,1.40
2023-09-26T16:14:44.895Z,1.30
2023-09-26T16:17:13.496Z,5.22
2023-09-26T16:19:42.972Z,1.17
2023-09-26T16:22:11.021Z,1.50
2023-09-26T16:24:39.157Z,1.50
2023-09-26T16:27:07.165Z,1.73
2023-09-26T16:29:35.416Z,1.35
2023-09-26T16:32:05.748Z,1.45
2023-09-26T16:34:33.909Z,3.55
2023-09-26T16:37:03.333Z,1.92
2023-09-26T16:39:32.040Z,1.63
2023-09-26T16:42:00.073Z,1.70
2023-09-26T16:44:28.102Z,1.50
2023-09-26T16:46:56.829Z,2.83
2023-09-26T16:49:24.933Z,1.60
2023-09-26T16:51:53.065Z,1.60
2023-09-26T16:54:22.411Z,1.30
2023-09-26T16:56:50.707Z,1.48
2023-09-26T16:59:19.212Z,2.92
2023-09-26T17:01:47.608Z,2.13
2023-09-26T17:04:17.077Z,1.75
2023-09-26T17:06:45.350Z,2.90
2023-09-26T17:09:13.735Z,3.10
2023-09-26T17:11:43.154Z,2.30
2023-09-26T17:14:12.010Z,1.48
2023-09-26T17:16:40.330Z,1.80
2023-09-26T17:19:08.651Z,1.95
2023-09-26T17:21:37.268Z,2.20
2023-09-26T17:24:05.864Z,1.98
2023-09-26T17:26:33.889Z,1.80
2023-09-26T17:29:03.417Z,1.73
2023-09-26T17:31:31.830Z,2.03
2023-09-26T17:33:59.955Z,2.00
2023-09-26T17:36:28.474Z,2.03
2023-09-26T17:38:57.425Z,2.20
2023-09-26T17:41:25.465Z,3.05
2023-09-26T17:43:55.486Z,1.75
2023-09-26T17:46:25.601Z,2.70
2023-09-26T17:48:53.688Z,2.35
2023-09-26T17:51:23.287Z,2.15
2023-09-26T17:53:51.336Z,1.83
2023-09-26T17:56:21.494Z,2.92
2023-09-26T17:58:49.786Z,2.33
2023-09-26T18:01:20.113Z,1.92
2023-09-26T18:03:49.732Z,2.50
2023-09-26T18:06:18.169Z,3.40
2023-09-26T18:08:46.541Z,2.08
2023-09-26T18:11:15.521Z,3.60
2023-09-26T18:13:44.114Z,2.30
2023-09-26T18:16:12.171Z,1.95
2023-09-26T18:18:40.548Z,1.75
2023-09-26T18:21:09.990Z,2.20
2023-09-26T18:23:38.334Z,4.57
2023-09-26T18:26:07.867Z,1.98
2023-09-26T18:28:36.455Z,4.13
2023-09-26T18:31:05.641Z,3.05
2023-09-26T18:33:34.015Z,2.53
2023-09-26T18:36:07.061Z,2.22
2023-09-26T18:38:39.033Z,2.55
2023-09-26T18:41:07.228Z,3.90
2023-09-26T18:43:36.271Z,6.85
2023-09-26T18:46:04.641Z,3.80
2023-09-26T18:48:32.692Z,2.50
2023-09-26T18:51:04.420Z,4.05
2023-09-26T18:53:32.913Z,2.70
2023-09-26T18:56:02.728Z,4.70
2023-09-26T18:58:30.770Z,18.73
2023-09-26T19:00:58.919Z,3.78
2023-09-26T19:03:27.426Z,4.50
2023-09-26T19:05:56.857Z,2.60
2023-09-26T19:08:25.085Z,2.95
2023-09-26T19:10:54.140Z,2.60
2023-09-26T19:13:23.701Z,2.47
2023-09-26T19:15:52.105Z,3.97
2023-09-26T19:18:20.113Z,2.53
2023-09-26T19:20:48.583Z,2.40
2023-09-26T19:23:17.075Z,2.70
2023-09-26T19:25:45.550Z,1.95
2023-09-26T19:28:16.563Z,2.00
2023-09-26T19:30:47.252Z,5.10
2023-09-26T19:33:15.617Z,2.90
2023-09-26T19:35:44.014Z,4.55
2023-09-26T19:38:12.633Z,2.38
2023-09-26T19:40:41.125Z,2.40
2023-09-26T19:43:09.514Z,4.40
2023-09-26T19:45:37.891Z,3.10
2023-09-26T19:48:08.141Z,4.35
2023-09-26T19:50:36.550Z,3.05
2023-09-26T19:53:04.936Z,5.03
2023-09-26T19:55:33.312Z,5.88
2023-09-26T19:58:01.380Z,3.38
2023-09-26T20:00:29.500Z,3.15
2023-09-26T20:02:57.628Z,2.80
2023-09-26T20:05:27.190Z,3.28
2023-09-26T20:07:55.332Z,3.83
2023-09-26T20:10:23.397Z,5.10
2023-09-26T20:12:52.124Z,3.70
2023-09-26T20:15:24.094Z,3.47
2023-09-26T20:17:53.038Z,4.95
2023-09-26T20:20:21.604Z,4.15
2023-09-26T20:22:51.423Z,7.30
2023-09-26T20:25:20.026Z,4.30
2023-09-26T20:27:48.552Z,7.20
2023-09-26T20:30:16.942Z,5.25
2023-09-26T20:32:45.333Z,2.65
2023-09-26T20:35:13.999Z,5.00
2023-09-26T20:37:42.366Z,3.10
2023-09-26T20:40:14.012Z,5.18
2023-09-26T20:42:42.058Z,4.15
2023-09-26T20:45:10.830Z,4.03
2023-09-26T20:47:39.173Z,4.88
2023-09-26T20:50:08.062Z,3.17
2023-09-26T20:52:36.493Z,4.78
2023-09-26T20:55:04.922Z,3.25
2023-09-26T20:57:34.466Z,3.80
2023-09-26T21:00:03.049Z,5.72
2023-09-26T21:02:31.560Z,3.92
2023-09-26T21:05:00.008Z,2.55
2023-09-26T21:07:28.420Z,3.00
2023-09-26T21:09:56.563Z,2.85
2023-09-26T21:12:24.987Z,4.53
2023-09-26T21:14:54.451Z,3.10
2023-09-26T21:17:22.789Z,3.92
2023-09-26T21:19:51.218Z,4.20
2023-09-26T21:22:19.318Z,6.18
2023-09-26T21:24:47.360Z,3.17
2023-09-26T21:27:15.701Z,4.68
2023-09-26T21:29:44.514Z,3.17
2023-09-26T21:32:13.968Z,4.60
2023-09-26T21:34:42.327Z,4.28
2023-09-26T21:37:10.728Z,7.05
2023-09-26T21:39:38.797Z,4.25
2023-09-26T21:42:07.175Z,4.38
2023-09-26T21:44:35.296Z,5.10
2023-09-26T21:47:03.726Z,3.92
2023-09-26T21:49:33.170Z,4.80
2023-09-26T21:52:01.229Z,4.30
2023-09-26T21:54:29.615Z,2.28
2023-09-26T21:56:58.271Z,3.85
2023-09-26T21:59:26.502Z,2.75
2023-09-26T22:01:55.004Z,5.15
2023-09-26T22:04:23.469Z,3.88
2023-09-26T22:06:52.895Z,3.58
2023-09-26T22:09:21.254Z,3.75
2023-09-26T22:11:49.607Z,5.20
2023-09-26T22:14:18.004Z,10.63
2023-09-26T22:16:50.073Z,5.88
2023-09-26T22:19:18.515Z,4.80
2023-09-26T22:21:46.884Z,3.42
2023-09-26T22:24:17.001Z,5.00
2023-09-26T22:26:45.057Z,3.22
2023-09-26T22:29:13.692Z,5.93
2023-09-26T22:31:42.123Z,5.32
2023-09-26T22:34:10.353Z,6.90
2023-09-26T22:36:38.789Z,4.57
2023-09-26T22:39:08.326Z,5.63
2023-09-26T22:41:37.724Z,8.52
2023-09-26T22:44:06.279Z,5.75
2023-09-26T22:46:34.496Z,4.30
2023-09-26T22:49:03.826Z,8.15
2023-09-26T22:51:32.035Z,3.60
2023-09-26T22:54:00.080Z,3.83
2023-09-26T22:56:28.244Z,5.10
2023-09-26T22:58:57.839Z,4.22
2023-09-26T23:01:25.992Z,2.88
2023-09-26T23:03:54.205Z,3.37
2023-09-26T23:06:24.318Z,7.28
2023-09-26T23:08:53.020Z,3.83
2023-09-26T23:11:21.584Z,4.47
2023-09-26T23:13:50.068Z,5.25
2023-09-26T23:16:19.496Z,3.63
2023-09-26T23:18:49.316Z,4.38
2023-09-26T23:21:17.690Z,3.85
2023-09-26T23:23:47.106Z,3.72
2023-09-26T23:26:15.572Z,4.00
2023-09-26T23:28:46.984Z,2.70
2023-09-26T23:31:15.447Z,5.80
2023-09-26T23:33:44.910Z,8.43
2023-09-26T23:36:14.307Z,3.23
2023-09-26T23:38:43.036Z,6.97
2023-09-26T23:41:11.189Z,4.75
2023-09-26T23:43:39.575Z,3.03
2023-09-26T23:46:07.723Z,3.55
2023-09-26T23:48:36.113Z,4.50
2023-09-26T23:51:13.430Z,4.90
2023-09-26T23:53:41.849Z,5.97
2023-09-26T23:56:10.398Z,5.00
2023-09-26T23:58:38.721Z,4.33
